createdAt,value
2022-10-26T00:00:31.940Z,50.908115
2022-10-26T00:01:31.975Z,50.908165
2022-10-26T00:02:31.933Z,50.908104
2022-10-26T00:03:31.893Z,50.908161
2022-10-26T00:04:31.884Z,50.908131
2022-10-26T00:05:31.906Z,50.908119
2022-10-26T00:06:31.869Z,50.908092
2022-10-26T00:07:31.922Z,50.908154
2022-10-26T00:08:31.861Z,50.908150
2022-10-26T00:09:31.860Z,50.908165
2022-10-26T00:10:31.992Z,50.908108
2022-10-26T00:11:31.838Z,50.908054
2022-10-26T00:12:31.832Z,50.908081
2022-10-26T00:13:31.822Z,50.908165
2022-10-26T00:14:31.810Z,50.908138
2022-10-26T00:15:31.830Z,50.908176
2022-10-26T00:16:31.797Z,50.908131
2022-10-26T00:17:31.792Z,50.908104
2022-10-26T00:18:31.778Z,50.908104
2022-10-26T00:19:31.773Z,50.908104
2022-10-26T00:20:31.779Z,50.908123
2022-10-26T00:21:32.756Z,50.908154
2022-10-26T00:22:31.752Z,50.908035
2022-10-26T00:23:31.746Z,50.908096
2022-10-26T00:24:31.735Z,50.908131
2022-10-26T00:25:31.753Z,50.908142
2022-10-26T00:26:31.721Z,50.908169
2022-10-26T00:27:31.710Z,50.908165
2022-10-26T00:28:31.701Z,50.908138
2022-10-26T00:29:31.696Z,50.908161
2022-10-26T00:30:31.710Z,50.908150
2022-10-26T00:31:31.678Z,50.908207
2022-10-26T00:32:31.748Z,50.908077
2022-10-26T00:33:31.667Z,50.908100
2022-10-26T00:34:31.658Z,50.908127
2022-10-26T00:35:45.094Z,50.908119
2022-10-26T00:36:33.640Z,50.908112
2022-10-26T00:37:31.638Z,50.908142
2022-10-26T00:38:31.637Z,50.908092
2022-10-26T00:39:31.621Z,50.908173
2022-10-26T00:40:31.638Z,50.908131
2022-10-26T00:41:31.612Z,50.908104
2022-10-26T00:42:31.595Z,50.908119
2022-10-26T00:43:31.593Z,50.908131
2022-10-26T00:44:36.050Z,50.908154
2022-10-26T00:45:33.602Z,50.908085
2022-10-26T00:46:31.570Z,50.908070
2022-10-26T00:47:31.561Z,50.908108
2022-10-26T00:48:31.560Z,50.908119
2022-10-26T00:49:31.549Z,50.908077
2022-10-26T00:50:31.567Z,50.908077
2022-10-26T00:51:31.529Z,50.908108
2022-10-26T00:52:31.529Z,50.908127
2022-10-26T00:53:31.519Z,50.908123
2022-10-26T00:54:31.515Z,50.908119
2022-10-26T00:55:31.533Z,50.908119
2022-10-26T00:56:31.500Z,50.908138
2022-10-26T00:57:31.507Z,50.908138
2022-10-26T00:58:31.482Z,50.908134
2022-10-26T00:59:31.474Z,50.908100
2022-10-26T01:00:31.491Z,50.908115
2022-10-26T01:01:31.567Z,50.908154
2022-10-26T01:02:31.447Z,50.908142
2022-10-26T01:03:31.464Z,50.908146
2022-10-26T01:04:31.432Z,50.908131
2022-10-26T01:05:31.445Z,50.908100
2022-10-26T01:06:31.422Z,50.908108
2022-10-26T01:07:31.410Z,50.908138
2022-10-26T01:08:31.391Z,50.908119
2022-10-26T01:09:31.392Z,50.908089
2022-10-26T01:10:31.411Z,50.908092
2022-10-26T01:11:31.370Z,50.908112
2022-10-26T01:12:31.375Z,50.908146
2022-10-26T01:13:31.360Z,50.908150
2022-10-26T01:14:31.352Z,50.908108
2022-10-26T01:15:31.338Z,50.908096
2022-10-26T01:16:31.361Z,50.908054
2022-10-26T01:17:31.320Z,50.908047
2022-10-26T01:18:31.311Z,50.908062
2022-10-26T01:19:31.310Z,50.908016
2022-10-26T01:20:31.301Z,50.908024
2022-10-26T01:21:31.316Z,50.908131
2022-10-26T01:22:31.288Z,50.908096
2022-10-26T01:23:31.274Z,50.908054
2022-10-26T01:24:31.276Z,50.908218
2022-10-26T01:25:31.266Z,50.908268
2022-10-26T01:26:31.279Z,50.908268
2022-10-26T01:27:31.247Z,50.908253
2022-10-26T01:28:31.242Z,50.908245
2022-10-26T01:29:31.236Z,50.908268
2022-10-26T01:30:31.224Z,50.908180
2022-10-26T01:31:31.239Z,50.908146
2022-10-26T01:32:31.210Z,50.908150
2022-10-26T01:33:31.207Z,50.908119
2022-10-26T01:34:31.197Z,50.908112
2022-10-26T01:35:31.192Z,50.908092
2022-10-26T01:37:31.176Z,50.908077
2022-10-26T01:38:31.163Z,50.908112
2022-10-26T01:39:31.157Z,50.908119
2022-10-26T01:40:31.150Z,50.908085
2022-10-26T01:41:31.168Z,50.908066
2022-10-26T01:42:31.131Z,50.908028
2022-10-26T01:43:31.126Z,50.908138
2022-10-26T01:44:31.117Z,50.908131
2022-10-26T01:45:31.110Z,50.908112
2022-10-26T01:46:31.128Z,50.908085
2022-10-26T01:47:31.094Z,50.908108
2022-10-26T01:48:31.080Z,50.908161
2022-10-26T01:49:31.076Z,50.908123
2022-10-26T01:50:31.068Z,50.908092
2022-10-26T01:51:31.087Z,50.908173
2022-10-26T01:52:31.049Z,50.908142
2022-10-26T01:53:32.045Z,50.908157
2022-10-26T01:54:31.081Z,50.908154
2022-10-26T01:55:31.034Z,50.908154
2022-10-26T01:56:31.048Z,50.908173
2022-10-26T01:57:31.019Z,50.908161
2022-10-26T01:58:31.010Z,50.908154
2022-10-26T01:59:30.997Z,50.908150
2022-10-26T02:00:31.005Z,50.908169
2022-10-26T02:01:31.073Z,50.908146
2022-10-26T02:02:30.985Z,50.908127
2022-10-26T02:03:31.008Z,50.908123
2022-10-26T02:04:30.972Z,50.908134
2022-10-26T02:05:30.954Z,50.908131
2022-10-26T02:06:30.973Z,50.908138
2022-10-26T02:07:30.942Z,50.908119
2022-10-26T02:08:30.930Z,50.908127
2022-10-26T02:09:30.926Z,50.908131
2022-10-26T02:10:30.917Z,50.908134
2022-10-26T02:11:30.940Z,50.908134
2022-10-26T02:12:30.901Z,50.908104
2022-10-26T02:13:30.894Z,50.908131
2022-10-26T02:14:30.885Z,50.908134
2022-10-26T02:15:30.878Z,50.908119
2022-10-26T02:16:30.898Z,50.908131
2022-10-26T02:17:30.872Z,50.908142
2022-10-26T02:18:30.856Z,50.908134
2022-10-26T02:19:30.843Z,50.908112
2022-10-26T02:20:30.834Z,50.908104
2022-10-26T02:21:30.829Z,50.908100
2022-10-26T02:22:30.844Z,50.908112
2022-10-26T02:23:30.814Z,50.908123
2022-10-26T02:24:30.802Z,50.908131
2022-10-26T02:25:30.801Z,50.908123
2022-10-26T02:26:30.794Z,50.908127
2022-10-26T02:27:30.808Z,50.908131
2022-10-26T02:28:30.772Z,50.908112
2022-10-26T02:29:30.771Z,50.908108
2022-10-26T02:30:30.753Z,50.908131
2022-10-26T02:31:31.753Z,50.908138
2022-10-26T02:32:30.771Z,50.908119
2022-10-26T02:33:30.732Z,50.908134
2022-10-26T02:34:30.727Z,50.908115
2022-10-26T02:35:30.720Z,50.908115
2022-10-26T02:36:30.715Z,50.908108
2022-10-26T02:37:30.733Z,50.908115
2022-10-26T02:38:30.701Z,50.908138
2022-10-26T02:39:30.690Z,50.908150
2022-10-26T02:40:30.677Z,50.908043
2022-10-26T02:41:30.671Z,50.908115
2022-10-26T02:42:30.686Z,50.908119
2022-10-26T02:44:30.649Z,50.908108
2022-10-26T02:45:30.640Z,50.908138
2022-10-26T02:46:30.637Z,50.908134
2022-10-26T02:47:30.650Z,50.908131
2022-10-26T02:48:30.620Z,50.908142
2022-10-26T02:49:30.611Z,50.908157
2022-10-26T02:50:30.604Z,50.908142
2022-10-26T02:51:30.594Z,50.908131
2022-10-26T02:52:30.613Z,50.908142
2022-10-26T02:53:30.584Z,50.908157
2022-10-26T02:54:30.568Z,50.908123
2022-10-26T02:55:30.569Z,50.908112
2022-10-26T02:56:30.562Z,50.908115
2022-10-26T02:57:30.581Z,50.908092
2022-10-26T02:58:30.546Z,50.908150
2022-10-26T02:59:30.537Z,50.908173
2022-10-26T03:00:30.529Z,50.908150
2022-10-26T03:01:30.586Z,50.908112
2022-10-26T03:02:30.538Z,50.908062
2022-10-26T03:03:30.504Z,50.908070
2022-10-26T03:04:30.497Z,50.908142
2022-10-26T03:05:30.493Z,50.908157
2022-10-26T03:06:30.485Z,50.908169
2022-10-26T03:07:30.514Z,50.908176
2022-10-26T03:08:30.613Z,50.908180
2022-10-26T03:09:30.462Z,50.908104
2022-10-26T03:10:30.455Z,50.908108
2022-10-26T03:11:30.446Z,50.908134
2022-10-26T03:12:30.440Z,50.908108
2022-10-26T03:13:30.459Z,50.908112
2022-10-26T03:14:30.442Z,50.908154
2022-10-26T03:15:30.431Z,50.908138
2022-10-26T03:16:30.440Z,50.908115
2022-10-26T03:17:30.439Z,50.908134
2022-10-26T03:18:30.443Z,50.908123
2022-10-26T03:19:30.387Z,50.908085
2022-10-26T03:20:30.374Z,50.908150
2022-10-26T03:21:30.368Z,50.908169
2022-10-26T03:22:30.364Z,50.908157
2022-10-26T03:23:30.381Z,50.908169
2022-10-26T03:24:30.347Z,50.908119
2022-10-26T03:25:30.341Z,50.908157
2022-10-26T03:26:30.333Z,50.908154
2022-10-26T03:27:30.327Z,50.908176
2022-10-26T03:28:30.348Z,50.908157
2022-10-26T03:29:30.312Z,50.908154
2022-10-26T03:30:30.303Z,50.908180
2022-10-26T03:31:30.294Z,50.908180
2022-10-26T03:32:30.289Z,50.908188
2022-10-26T03:33:30.357Z,50.908176
2022-10-26T03:34:30.269Z,50.908199
2022-10-26T03:35:30.269Z,50.908119
2022-10-26T03:36:30.262Z,50.908131
2022-10-26T03:37:30.248Z,50.908138
2022-10-26T03:38:30.275Z,50.908108
2022-10-26T03:39:30.237Z,50.908115
2022-10-26T03:40:30.233Z,50.908173
2022-10-26T03:41:30.229Z,50.908134
2022-10-26T03:42:30.214Z,50.908062
2022-10-26T03:43:30.237Z,50.908150
2022-10-26T03:44:30.200Z,50.908150
2022-10-26T03:45:30.204Z,50.908100
2022-10-26T03:46:30.177Z,50.908176
2022-10-26T03:47:30.180Z,50.908173
2022-10-26T03:48:30.192Z,50.908123
2022-10-26T03:49:30.163Z,50.908115
2022-10-26T03:50:30.156Z,50.908138
2022-10-26T03:51:30.145Z,50.908142
2022-10-26T03:52:30.141Z,50.908157
2022-10-26T03:53:30.149Z,50.908115
2022-10-26T03:54:30.148Z,50.908081
2022-10-26T03:55:30.123Z,50.908081
2022-10-26T03:56:30.109Z,50.908115
2022-10-26T03:57:30.099Z,50.908123
2022-10-26T03:58:30.105Z,50.908150
2022-10-26T03:59:30.116Z,50.908142
2022-10-26T04:00:30.080Z,50.908180
2022-10-26T04:01:30.123Z,50.908146
2022-10-26T04:02:30.069Z,50.908157
2022-10-26T04:03:30.057Z,50.908146
2022-10-26T04:04:30.144Z,50.908127
2022-10-26T04:05:30.044Z,50.908146
2022-10-26T04:06:30.044Z,50.908142
2022-10-26T04:07:30.028Z,50.908085
2022-10-26T04:08:30.030Z,50.908134
2022-10-26T04:09:30.049Z,50.908119
2022-10-26T04:10:30.009Z,50.908157
2022-10-26T04:11:30.002Z,50.908134
2022-10-26T04:12:29.997Z,50.908127
2022-10-26T04:13:29.984Z,50.908150
2022-10-26T04:14:30.003Z,50.908131
2022-10-26T04:15:29.968Z,50.908119
2022-10-26T04:16:32.705Z,50.908134
2022-10-26T04:17:29.951Z,50.908127
2022-10-26T04:18:29.948Z,50.908112
2022-10-26T04:19:29.960Z,50.908089
2022-10-26T04:20:29.929Z,50.908108
2022-10-26T04:21:29.928Z,50.908092
2022-10-26T04:22:29.917Z,50.908104
2022-10-26T04:23:29.925Z,50.908108
2022-10-26T04:24:29.925Z,50.908100
2022-10-26T04:25:32.696Z,50.908108
2022-10-26T04:26:29.881Z,50.908192
2022-10-26T04:27:29.881Z,50.908127
2022-10-26T04:28:29.872Z,50.908096
2022-10-26T04:29:29.886Z,50.908154
2022-10-26T04:30:29.853Z,50.908161
2022-10-26T04:31:29.876Z,50.908131
2022-10-26T04:32:29.835Z,50.908108
2022-10-26T04:33:29.831Z,50.908134
2022-10-26T04:34:29.847Z,50.908092
2022-10-26T04:35:29.819Z,50.908127
2022-10-26T04:36:29.806Z,50.908134
2022-10-26T04:37:29.797Z,50.908142
2022-10-26T04:38:29.790Z,50.908165
2022-10-26T04:39:29.802Z,50.908127
2022-10-26T04:40:29.775Z,50.908127
2022-10-26T04:41:29.767Z,50.908119
2022-10-26T04:42:29.760Z,50.908066
2022-10-26T04:43:29.754Z,50.908112
2022-10-26T04:44:29.763Z,50.908100
2022-10-26T04:45:29.729Z,50.908134
2022-10-26T04:46:29.727Z,50.908115
2022-10-26T04:47:29.712Z,50.908108
2022-10-26T04:48:29.716Z,50.908100
2022-10-26T04:49:29.720Z,50.908104
2022-10-26T04:50:29.691Z,50.908108
2022-10-26T04:51:29.688Z,50.908112
2022-10-26T04:52:29.673Z,50.908081
2022-10-26T04:53:29.669Z,50.908138
2022-10-26T04:54:29.676Z,50.908165
2022-10-26T04:55:29.652Z,50.908173
2022-10-26T04:56:29.644Z,50.908127
2022-10-26T04:57:29.633Z,50.908127
2022-10-26T04:58:29.622Z,50.908054
2022-10-26T04:59:29.642Z,50.908127
2022-10-26T05:00:29.619Z,50.908119
2022-10-26T05:01:29.705Z,50.908138
2022-10-26T05:02:29.799Z,50.908119
2022-10-26T05:03:30.257Z,50.908150
2022-10-26T05:04:29.605Z,50.908112
2022-10-26T05:05:29.578Z,50.908104
2022-10-26T05:06:29.567Z,50.908089
2022-10-26T05:07:29.567Z,50.908108
2022-10-26T05:08:29.550Z,50.908146
2022-10-26T05:09:29.566Z,50.908134
2022-10-26T05:10:29.533Z,50.908146
2022-10-26T05:11:29.530Z,50.908119
2022-10-26T05:12:29.519Z,50.908138
2022-10-26T05:13:29.514Z,50.908142
2022-10-26T05:14:29.514Z,50.908138
2022-10-26T05:15:30.494Z,50.908161
2022-10-26T05:16:29.488Z,50.908150
2022-10-26T05:17:29.482Z,50.908123
2022-10-26T05:18:29.474Z,50.908119
2022-10-26T05:19:29.488Z,50.908134
2022-10-26T05:20:29.458Z,50.908077
2022-10-26T05:21:29.448Z,50.908138
2022-10-26T05:22:29.440Z,50.908119
2022-10-26T05:23:29.432Z,50.908203
2022-10-26T05:24:29.451Z,50.908169
2022-10-26T05:25:29.415Z,50.908134
2022-10-26T05:26:29.412Z,50.908150
2022-10-26T05:27:29.408Z,50.908123
2022-10-26T05:28:29.391Z,50.908134
2022-10-26T05:29:29.411Z,50.908150
2022-10-26T05:30:29.378Z,50.908188
2022-10-26T05:31:29.374Z,50.908215
2022-10-26T05:32:29.365Z,50.908115
2022-10-26T05:33:29.358Z,50.908062
2022-10-26T05:34:29.375Z,50.908077
2022-10-26T05:35:29.341Z,50.908127
2022-10-26T05:36:29.330Z,50.908058
2022-10-26T05:37:29.325Z,50.908031
2022-10-26T05:38:29.319Z,50.908077
2022-10-26T05:39:29.338Z,50.908119
2022-10-26T05:40:29.304Z,50.908157
2022-10-26T05:41:29.301Z,50.908081
2022-10-26T05:42:29.287Z,50.908054
2022-10-26T05:43:29.279Z,50.908051
2022-10-26T05:44:29.293Z,50.908108
2022-10-26T05:45:29.267Z,50.908119
2022-10-26T05:46:29.255Z,50.908119
2022-10-26T05:47:29.245Z,50.908054
2022-10-26T05:48:30.247Z,50.908028
2022-10-26T05:49:29.257Z,50.908035
2022-10-26T05:50:29.226Z,50.908100
2022-10-26T05:51:29.212Z,50.908161
2022-10-26T05:52:29.205Z,50.908138
2022-10-26T05:53:29.199Z,50.908131
2022-10-26T05:54:29.217Z,50.907997
2022-10-26T05:55:29.185Z,50.907955
2022-10-26T05:56:29.172Z,50.908089
2022-10-26T05:57:29.167Z,50.908188
2022-10-26T05:58:29.157Z,50.907990
2022-10-26T05:59:29.180Z,50.907940
2022-10-26T06:00:29.182Z,50.907875
2022-10-26T06:01:29.253Z,50.907970
2022-10-26T06:02:29.189Z,50.908024
2022-10-26T06:03:32.134Z,50.908104
2022-10-26T06:04:29.141Z,50.908092
2022-10-26T06:05:29.128Z,50.908112
2022-10-26T06:06:29.096Z,50.908394
2022-10-26T06:07:29.089Z,50.908459
2022-10-26T06:08:29.084Z,50.908173
2022-10-26T06:09:29.108Z,50.908207
2022-10-26T06:10:29.066Z,50.908207
2022-10-26T06:11:29.059Z,50.908207
2022-10-26T06:12:29.051Z,50.908234
2022-10-26T06:13:29.047Z,50.908192
2022-10-26T06:14:29.062Z,50.908192
2022-10-26T06:15:29.026Z,50.908157
2022-10-26T06:16:29.020Z,50.908180
2022-10-26T06:17:29.013Z,50.908138
2022-10-26T06:18:29.004Z,50.908138
2022-10-26T06:19:29.003Z,50.908154
2022-10-26T06:20:29.023Z,50.908165
2022-10-26T06:21:28.981Z,50.908165
2022-10-26T06:22:28.965Z,50.908161
2022-10-26T06:23:29.974Z,50.908161
2022-10-26T06:24:28.965Z,50.908123
2022-10-26T06:25:28.974Z,50.908138
2022-10-26T06:26:28.944Z,50.908138
2022-10-26T06:27:28.939Z,50.908188
2022-10-26T06:28:28.977Z,50.908237
2022-10-26T06:29:28.917Z,50.908173
2022-10-26T06:30:28.938Z,50.908157
2022-10-26T06:31:28.900Z,50.908276
2022-10-26T06:32:28.902Z,50.908173
2022-10-26T06:33:30.290Z,50.908176
2022-10-26T06:34:29.879Z,50.908134
2022-10-26T06:35:28.896Z,50.908112
2022-10-26T06:36:28.863Z,50.908131
2022-10-26T06:37:28.853Z,50.908173
2022-10-26T06:38:28.844Z,50.908173
2022-10-26T06:39:28.835Z,50.908188
2022-10-26T06:40:28.854Z,50.908085
2022-10-26T06:41:28.818Z,50.908085
2022-10-26T06:42:28.812Z,50.908138
2022-10-26T06:43:28.804Z,50.908108
2022-10-26T06:44:28.796Z,50.908173
2022-10-26T06:45:28.817Z,50.908127
2022-10-26T06:46:28.779Z,50.908077
2022-10-26T06:47:28.775Z,50.908169
2022-10-26T06:48:28.770Z,50.908092
2022-10-26T06:49:28.785Z,50.908134
2022-10-26T06:50:28.751Z,50.908119
2022-10-26T06:51:28.746Z,50.908218
2022-10-26T06:52:28.733Z,50.908199
2022-10-26T06:53:28.832Z,50.908112
2022-10-26T06:54:28.746Z,50.908192
2022-10-26T06:55:29.709Z,50.908184
2022-10-26T06:56:28.703Z,50.908176
2022-10-26T06:57:28.697Z,50.908173
2022-10-26T06:58:28.689Z,50.908195
2022-10-26T06:59:28.712Z,50.908161
2022-10-26T07:00:28.712Z,50.908108
2022-10-26T07:01:28.773Z,50.908291
2022-10-26T07:02:28.752Z,50.908195
2022-10-26T07:03:28.665Z,50.908218
2022-10-26T07:04:28.668Z,50.908154
2022-10-26T07:05:28.631Z,50.908173
2022-10-26T07:06:28.624Z,50.908051
2022-10-26T07:07:28.614Z,50.908119
2022-10-26T07:08:28.606Z,50.908165
2022-10-26T07:09:28.623Z,50.908134
2022-10-26T07:10:28.594Z,50.908096
2022-10-26T07:11:28.584Z,50.908104
2022-10-26T07:12:32.161Z,50.908096
2022-10-26T07:13:29.568Z,50.908115
2022-10-26T07:14:28.586Z,50.908180
2022-10-26T07:15:28.544Z,50.908157
2022-10-26T07:16:29.541Z,50.908131
2022-10-26T07:17:28.537Z,50.908112
2022-10-26T07:18:28.530Z,50.908493
2022-10-26T07:19:28.551Z,50.908173
2022-10-26T07:20:28.519Z,50.908146
2022-10-26T07:21:28.511Z,50.908169
2022-10-26T07:22:28.501Z,50.908146
2022-10-26T07:24:28.512Z,50.908142
2022-10-26T07:25:28.476Z,50.908188
2022-10-26T07:26:28.466Z,50.908051
2022-10-26T07:27:28.461Z,50.908085
2022-10-26T07:28:28.449Z,50.908150
2022-10-26T07:29:28.467Z,50.908108
2022-10-26T07:30:28.434Z,50.908012
2022-10-26T07:31:28.424Z,50.908134
2022-10-26T07:32:28.421Z,50.908169
2022-10-26T07:33:28.413Z,50.908142
2022-10-26T07:34:28.447Z,50.908131
2022-10-26T07:35:28.399Z,50.908108
2022-10-26T07:36:28.388Z,50.908119
2022-10-26T07:37:28.379Z,50.908154
2022-10-26T07:38:28.388Z,50.908127
2022-10-26T07:39:28.396Z,50.908173
2022-10-26T07:40:28.385Z,50.908127
2022-10-26T07:41:28.343Z,50.908157
2022-10-26T07:42:28.342Z,50.908142
2022-10-26T07:43:28.334Z,50.908146
2022-10-26T07:44:28.325Z,50.908115
2022-10-26T07:45:28.339Z,50.908115
2022-10-26T07:46:28.311Z,50.908127
2022-10-26T07:47:28.307Z,50.908154
2022-10-26T07:48:28.301Z,50.908127
2022-10-26T07:49:28.288Z,50.908123
2022-10-26T07:50:28.303Z,50.908131
2022-10-26T07:51:28.273Z,50.908077
2022-10-26T07:52:28.291Z,50.908119
2022-10-26T07:53:28.253Z,50.908165
2022-10-26T07:54:28.291Z,50.908016
2022-10-26T07:55:28.288Z,50.908115
2022-10-26T07:56:28.219Z,50.908169
2022-10-26T07:57:29.220Z,50.908096
2022-10-26T07:58:28.283Z,50.908142
2022-10-26T07:59:28.205Z,50.908142
2022-10-26T08:00:28.248Z,50.908058
2022-10-26T08:01:28.282Z,50.908123
2022-10-26T08:02:28.180Z,50.908108
2022-10-26T08:03:28.170Z,50.908089
2022-10-26T08:04:28.164Z,50.908115
2022-10-26T08:05:28.202Z,50.908092
2022-10-26T08:06:28.146Z,50.908138
2022-10-26T08:07:28.142Z,50.908127
2022-10-26T08:08:28.145Z,50.908100
2022-10-26T08:09:28.130Z,50.908119
2022-10-26T08:10:28.199Z,50.908134
2022-10-26T08:11:28.116Z,50.908039
2022-10-26T08:12:28.098Z,50.908089
2022-10-26T08:13:28.103Z,50.908104
2022-10-26T08:14:28.084Z,50.908100
2022-10-26T08:15:28.107Z,50.908138
2022-10-26T08:16:28.066Z,50.908154
2022-10-26T08:17:28.060Z,50.908161
2022-10-26T08:18:28.053Z,50.908119
2022-10-26T08:19:28.049Z,50.908134
2022-10-26T08:20:28.036Z,50.908119
2022-10-26T08:21:39.174Z,50.908138
2022-10-26T08:22:30.022Z,50.908115
2022-10-26T08:23:28.011Z,50.908112
2022-10-26T08:24:28.007Z,50.908123
2022-10-26T08:25:28.015Z,50.908138
2022-10-26T08:26:28.981Z,50.908131
2022-10-26T08:27:28.974Z,50.908115
2022-10-26T08:28:28.973Z,50.908115
2022-10-26T08:29:27.983Z,50.908119
2022-10-26T08:30:28.019Z,50.908108
2022-10-26T08:31:27.963Z,50.908169
2022-10-26T08:32:27.944Z,50.908127
2022-10-26T08:33:27.939Z,50.908138
2022-10-26T08:34:27.928Z,50.908131
2022-10-26T08:35:27.944Z,50.908173
2022-10-26T08:36:27.915Z,50.908165
2022-10-26T08:37:27.904Z,50.908203
2022-10-26T08:38:27.906Z,50.908176
2022-10-26T08:39:27.891Z,50.908104
2022-10-26T08:40:27.908Z,50.908092
2022-10-26T08:41:27.881Z,50.908089
2022-10-26T08:42:27.867Z,50.908108
2022-10-26T08:43:27.867Z,50.908112
2022-10-26T08:44:27.851Z,50.908131
2022-10-26T08:45:32.964Z,50.908108
2022-10-26T08:46:29.838Z,50.908169
2022-10-26T08:47:27.828Z,50.908146
2022-10-26T08:48:27.823Z,50.908146
2022-10-26T08:49:27.828Z,50.908134
2022-10-26T08:50:27.808Z,50.908119
2022-10-26T08:51:27.841Z,50.907871
2022-10-26T08:52:27.792Z,50.908142
2022-10-26T08:53:27.783Z,50.908104
2022-10-26T08:54:27.779Z,50.908100
2022-10-26T08:55:27.796Z,50.908100
2022-10-26T08:56:27.788Z,50.908234
2022-10-26T08:57:27.756Z,50.908134
2022-10-26T08:58:27.741Z,50.908146
2022-10-26T08:59:28.746Z,50.908169
2022-10-26T09:00:27.731Z,50.908096
2022-10-26T09:01:27.817Z,50.908138
2022-10-26T09:02:27.716Z,50.908134
2022-10-26T09:03:27.708Z,50.908134
2022-10-26T09:04:27.705Z,50.908173
2022-10-26T09:05:27.697Z,50.908100
2022-10-26T09:06:27.711Z,50.908150
2022-10-26T09:07:27.686Z,50.908138
2022-10-26T09:08:27.676Z,50.908203
2022-10-26T09:09:27.667Z,50.908207
2022-10-26T09:11:27.672Z,50.908165
2022-10-26T09:12:27.642Z,50.908192
2022-10-26T09:13:27.633Z,50.908150
2022-10-26T09:14:27.621Z,50.908157
2022-10-26T09:15:27.618Z,50.908207
2022-10-26T09:16:27.632Z,50.908184
2022-10-26T09:17:27.619Z,50.908142
2022-10-26T09:18:27.602Z,50.908146
2022-10-26T09:19:27.581Z,50.908077
2022-10-26T09:20:27.574Z,50.908154
2022-10-26T09:21:27.595Z,50.908161
2022-10-26T09:22:27.562Z,50.908127
2022-10-26T09:23:27.561Z,50.908005
2022-10-26T09:24:27.548Z,50.908028
2022-10-26T09:25:27.548Z,50.908028
2022-10-26T09:26:27.568Z,50.908028
2022-10-26T09:27:27.522Z,50.908028
2022-10-26T09:28:27.516Z,50.908028
2022-10-26T09:29:27.516Z,50.908119
2022-10-26T09:30:27.503Z,50.908154
2022-10-26T09:31:27.509Z,50.908154
2022-10-26T09:32:27.518Z,50.908154
2022-10-26T09:33:27.482Z,50.908176
2022-10-26T09:34:27.473Z,50.908157
2022-10-26T09:35:27.487Z,50.908165
2022-10-26T09:36:27.482Z,50.908165
2022-10-26T09:37:28.449Z,50.908165
2022-10-26T09:38:27.442Z,50.908165
2022-10-26T09:39:27.433Z,50.908165
2022-10-26T09:40:27.425Z,50.908165
2022-10-26T09:41:29.592Z,50.908165
2022-10-26T09:42:27.410Z,50.908165
2022-10-26T09:43:27.402Z,50.908165
2022-10-26T09:44:27.400Z,50.908165
2022-10-26T09:45:27.392Z,50.908165
2022-10-26T09:46:27.380Z,50.908165
2022-10-26T09:47:27.397Z,50.908199
2022-10-26T09:48:27.365Z,50.908180
2022-10-26T09:49:27.416Z,50.908165
2022-10-26T09:50:27.348Z,50.908199
2022-10-26T09:51:27.392Z,50.908199
2022-10-26T09:52:27.360Z,50.908199
2022-10-26T09:53:27.330Z,50.908283
2022-10-26T09:54:27.319Z,50.908283
2022-10-26T09:55:27.313Z,50.908329
2022-10-26T09:56:27.305Z,50.908310
2022-10-26T09:57:27.326Z,50.908192
2022-10-26T09:58:27.291Z,50.908218
2022-10-26T09:59:27.285Z,50.908291
2022-10-26T10:00:27.315Z,50.908302
2022-10-26T10:01:27.329Z,50.908237
2022-10-26T10:02:27.326Z,50.908157
2022-10-26T10:03:27.254Z,50.908157
2022-10-26T10:04:27.249Z,50.908234
2022-10-26T10:05:49.761Z,50.908276
2022-10-26T10:06:29.224Z,50.908298
2022-10-26T10:07:28.253Z,50.908298
2022-10-26T10:08:27.217Z,50.908100
2022-10-26T10:09:27.207Z,50.908222
2022-10-26T10:10:27.200Z,50.908226
2022-10-26T10:11:27.192Z,50.908157
2022-10-26T10:12:27.221Z,50.908195
2022-10-26T10:13:27.175Z,50.908211
2022-10-26T10:14:27.169Z,50.908157
2022-10-26T10:15:27.160Z,50.908237
2022-10-26T10:16:27.153Z,50.908260
2022-10-26T10:17:27.141Z,50.908211
2022-10-26T10:18:27.162Z,50.908211
2022-10-26T10:19:27.133Z,50.908169
2022-10-26T10:20:27.120Z,50.908222
2022-10-26T10:21:27.110Z,50.908249
2022-10-26T10:22:27.099Z,50.908207
2022-10-26T10:23:27.126Z,50.908257
2022-10-26T10:24:27.087Z,50.908245
2022-10-26T10:25:27.090Z,50.908268
2022-10-26T10:26:27.072Z,50.908230
2022-10-26T10:27:27.068Z,50.908203
2022-10-26T10:28:27.085Z,50.908161
2022-10-26T10:29:27.047Z,50.908314
2022-10-26T10:30:27.040Z,50.908276
2022-10-26T10:31:27.033Z,50.908222
2022-10-26T10:32:27.022Z,50.908165
2022-10-26T10:33:27.044Z,50.908260
2022-10-26T10:34:27.006Z,50.908215
2022-10-26T10:35:26.998Z,50.908184
2022-10-26T10:36:26.993Z,50.908173
2022-10-26T10:37:26.982Z,50.908218
2022-10-26T10:38:26.999Z,50.908222
2022-10-26T10:39:26.977Z,50.908237
2022-10-26T10:40:26.959Z,50.908165
2022-10-26T10:41:26.952Z,50.908157
2022-10-26T10:42:26.952Z,50.908207
2022-10-26T10:43:26.963Z,50.908184
2022-10-26T10:44:26.929Z,50.908222
2022-10-26T10:45:26.922Z,50.908176
2022-10-26T10:46:26.915Z,50.908165
2022-10-26T10:47:26.966Z,50.908108
2022-10-26T10:48:26.926Z,50.908180
2022-10-26T10:49:26.898Z,50.908180
2022-10-26T10:50:26.885Z,50.908230
2022-10-26T10:51:26.897Z,50.908146
2022-10-26T10:52:26.896Z,50.908134
2022-10-26T10:53:26.887Z,50.908134
2022-10-26T10:54:26.858Z,50.908169
2022-10-26T10:55:26.842Z,50.908146
2022-10-26T10:56:27.839Z,50.908188
2022-10-26T10:57:26.829Z,50.908195
2022-10-26T10:58:26.852Z,50.908176
2022-10-26T10:59:26.820Z,50.908146
2022-10-26T11:00:26.807Z,50.908138
2022-10-26T11:01:26.943Z,50.908142
2022-10-26T11:02:26.918Z,50.908154
2022-10-26T11:03:27.813Z,50.908192
2022-10-26T11:04:26.782Z,50.908192
2022-10-26T11:05:27.695Z,50.908161
2022-10-26T11:06:26.774Z,50.908150
2022-10-26T11:07:26.757Z,50.908154
2022-10-26T11:08:26.775Z,50.908165
2022-10-26T11:09:26.736Z,50.908260
2022-10-26T11:10:26.732Z,50.908276
2022-10-26T11:11:26.772Z,50.908333
2022-10-26T11:12:26.776Z,50.908260
2022-10-26T11:13:26.709Z,50.908253
2022-10-26T11:14:26.726Z,50.908272
2022-10-26T11:15:26.692Z,50.908222
2022-10-26T11:16:26.682Z,50.908207
2022-10-26T11:17:26.677Z,50.908268
2022-10-26T11:18:26.675Z,50.908291
2022-10-26T11:19:26.693Z,50.908226
2022-10-26T11:20:26.653Z,50.908184
2022-10-26T11:21:26.647Z,50.908234
2022-10-26T11:22:26.634Z,50.908573
2022-10-26T11:23:26.632Z,50.908550
2022-10-26T11:24:26.653Z,50.908405
2022-10-26T11:25:26.612Z,50.908386
2022-10-26T11:26:26.628Z,50.908489
2022-10-26T11:27:26.602Z,50.908516
2022-10-26T11:28:26.601Z,50.908672